createdAt,value
2019-02-10T00:00:22.870Z,943.49
2019-02-10T00:01:22.849Z,943.48
2019-02-10T00:02:22.848Z,943.48
2019-02-10T00:03:22.840Z,943.46
2019-02-10T00:04:22.836Z,943.42
2019-02-10T00:05:22.824Z,943.43
2019-02-10T00:06:24.685Z,943.37
2019-02-10T00:07:22.816Z,943.40
2019-02-10T00:08:22.799Z,943.34
2019-02-10T00:09:22.795Z,943.32
2019-02-10T00:10:22.799Z,943.31
2019-02-10T00:11:22.778Z,943.29
2019-02-10T00:12:22.785Z,943.33
2019-02-10T00:13:22.758Z,943.29
2019-02-10T00:14:22.750Z,943.29
2019-02-10T00:15:22.742Z,943.30
2019-02-10T00:16:22.734Z,943.19
2019-02-10T00:17:22.728Z,943.22
2019-02-10T00:18:22.748Z,943.24
2019-02-10T00:19:22.711Z,943.21
2019-02-10T00:20:22.719Z,943.18
2019-02-10T00:21:22.724Z,943.25
2019-02-10T00:22:22.766Z,943.21
2019-02-10T00:23:22.675Z,943.22
2019-02-10T00:24:22.681Z,943.20
2019-02-10T00:25:22.659Z,943.22
2019-02-10T00:26:22.653Z,943.22
2019-02-10T00:27:22.642Z,943.20
2019-02-10T00:28:22.633Z,943.19
2019-02-10T00:29:22.627Z,943.18
2019-02-10T00:30:22.634Z,943.19
2019-02-10T00:31:22.625Z,943.17
2019-02-10T00:32:22.602Z,943.16
2019-02-10T00:33:22.628Z,943.10
2019-02-10T00:34:22.586Z,943.04
2019-02-10T00:35:22.582Z,943.09
2019-02-10T00:36:22.615Z,943.05
2019-02-10T00:37:22.561Z,943.02
2019-02-10T00:38:22.558Z,943.06
2019-02-10T00:39:22.544Z,943.02
2019-02-10T00:40:22.556Z,943.02
2019-02-10T00:41:22.528Z,943.00
2019-02-10T00:42:22.514Z,943.03
2019-02-10T00:43:22.519Z,943.01
2019-02-10T00:44:22.548Z,942.99
2019-02-10T00:45:24.276Z,942.98
2019-02-10T00:46:22.488Z,943.02
2019-02-10T00:47:22.478Z,942.99
2019-02-10T00:48:22.463Z,942.97
2019-02-10T00:49:22.480Z,942.96
2019-02-10T00:50:22.473Z,942.91
2019-02-10T00:51:22.443Z,942.92
2019-02-10T00:52:22.448Z,942.91
2019-02-10T00:53:22.429Z,942.96
2019-02-10T00:54:22.423Z,942.99
2019-02-10T00:55:22.438Z,942.95
2019-02-10T00:56:22.406Z,943.00
2019-02-10T00:57:22.397Z,942.96
2019-02-10T00:58:22.388Z,942.93
2019-02-10T00:59:22.380Z,942.98
2019-02-10T01:00:22.388Z,943.01
2019-02-10T01:01:22.364Z,943.01
2019-02-10T01:02:22.362Z,943.07
2019-02-10T01:03:22.347Z,943.07
2019-02-10T01:04:22.339Z,943.07
2019-02-10T01:05:22.331Z,943.02
2019-02-10T01:06:22.323Z,943.06
2019-02-10T01:07:22.347Z,943.08
2019-02-10T01:08:22.306Z,943.07
2019-02-10T01:09:22.300Z,943.03
2019-02-10T01:10:22.311Z,943.00
2019-02-10T01:11:22.281Z,942.98
2019-02-10T01:12:22.334Z,942.97
2019-02-10T01:13:22.265Z,942.97
2019-02-10T01:14:22.260Z,942.91
2019-02-10T01:15:22.249Z,942.96
2019-02-10T01:16:22.243Z,942.97
2019-02-10T01:17:22.334Z,942.93
2019-02-10T01:18:22.223Z,942.89
2019-02-10T01:19:22.215Z,942.89
2019-02-10T01:20:22.228Z,942.88
2019-02-10T01:21:22.200Z,942.86
2019-02-10T01:22:22.337Z,942.85
2019-02-10T01:23:22.186Z,942.83
2019-02-10T01:24:22.175Z,942.88
2019-02-10T01:25:22.165Z,942.85
2019-02-10T01:26:22.158Z,942.83
2019-02-10T01:27:22.311Z,942.82
2019-02-10T01:28:22.144Z,942.84
2019-02-10T01:29:22.134Z,942.89
2019-02-10T01:30:22.137Z,942.87
2019-02-10T01:31:22.110Z,942.85
2019-02-10T01:32:22.195Z,942.80
2019-02-10T01:33:22.102Z,942.84
2019-02-10T01:34:22.091Z,942.85
2019-02-10T01:35:22.082Z,942.80
2019-02-10T01:36:22.074Z,942.77
2019-02-10T01:37:22.329Z,942.75
2019-02-10T01:38:22.072Z,942.75
2019-02-10T01:39:22.054Z,942.69
2019-02-10T01:40:22.045Z,942.68
2019-02-10T01:41:22.034Z,942.67
2019-02-10T01:42:22.032Z,942.67
2019-02-10T01:43:22.016Z,942.67
2019-02-10T01:44:22.015Z,942.68
2019-02-10T01:45:21.998Z,942.66
2019-02-10T01:46:21.990Z,942.66
2019-02-10T01:47:21.993Z,942.71
2019-02-10T01:48:21.973Z,942.66
2019-02-10T01:49:21.961Z,942.68
2019-02-10T01:50:21.958Z,942.69
2019-02-10T01:51:21.951Z,942.64
2019-02-10T01:52:21.931Z,942.53
2019-02-10T01:53:21.932Z,942.56
2019-02-10T01:54:21.923Z,942.50
2019-02-10T01:55:21.914Z,942.48
2019-02-10T01:56:21.907Z,942.47
2019-02-10T01:57:21.900Z,942.45
2019-02-10T01:58:21.890Z,942.43
2019-02-10T01:59:21.873Z,942.39
2019-02-10T02:00:21.884Z,942.39
2019-02-10T02:01:21.867Z,942.38
2019-02-10T02:02:21.850Z,942.34
2019-02-10T02:03:21.849Z,942.35
2019-02-10T02:04:21.839Z,942.29
2019-02-10T02:05:21.832Z,942.26
2019-02-10T02:06:21.815Z,942.23
2019-02-10T02:07:21.817Z,942.19
2019-02-10T02:08:21.808Z,942.15
2019-02-10T02:09:21.798Z,942.20
2019-02-10T02:10:21.782Z,942.16
2019-02-10T02:11:21.798Z,942.17
2019-02-10T02:12:21.774Z,942.19
2019-02-10T02:13:21.764Z,942.12
2019-02-10T02:14:21.759Z,942.10
2019-02-10T02:15:21.743Z,942.03
2019-02-10T02:16:21.739Z,942.04
2019-02-10T02:17:21.733Z,942.01
2019-02-10T02:18:21.723Z,941.98
2019-02-10T02:19:21.715Z,941.91
2019-02-10T02:20:21.712Z,941.83
2019-02-10T02:21:21.697Z,941.82
2019-02-10T02:22:21.689Z,941.78
2019-02-10T02:23:21.691Z,941.76
2019-02-10T02:24:21.674Z,941.72
2019-02-10T02:25:21.667Z,941.73
2019-02-10T02:26:21.694Z,941.71
2019-02-10T02:27:21.650Z,941.67
2019-02-10T02:28:21.642Z,941.67
2019-02-10T02:29:21.636Z,941.66
2019-02-10T02:30:21.623Z,941.62
2019-02-10T02:31:21.612Z,941.58
2019-02-10T02:32:21.609Z,941.63
2019-02-10T02:33:21.605Z,941.60
2019-02-10T02:34:21.612Z,941.54
2019-02-10T02:35:21.579Z,941.58
2019-02-10T02:36:21.570Z,941.51
2019-02-10T02:37:21.563Z,941.48
2019-02-10T02:38:21.556Z,941.48
2019-02-10T02:39:21.547Z,941.45
2019-02-10T02:40:21.543Z,941.42
2019-02-10T02:41:21.532Z,941.45
2019-02-10T02:42:21.521Z,941.41
2019-02-10T02:43:21.518Z,941.39
2019-02-10T02:44:21.497Z,941.34
2019-02-10T02:45:21.492Z,941.32
2019-02-10T02:46:21.492Z,941.36
2019-02-10T02:47:21.482Z,941.32
2019-02-10T02:48:21.472Z,941.30
2019-02-10T02:49:21.464Z,941.27
2019-02-10T02:50:21.452Z,941.23
2019-02-10T02:51:21.447Z,941.17
2019-02-10T02:52:21.438Z,941.15
2019-02-10T02:53:21.428Z,941.12
2019-02-10T02:54:21.422Z,941.08
2019-02-10T02:55:21.419Z,941.12
2019-02-10T02:56:21.393Z,941.04
2019-02-10T02:57:21.394Z,941.01
2019-02-10T02:58:21.408Z,940.99
2019-02-10T02:59:21.440Z,941.02
2019-02-10T03:00:21.360Z,940.91
2019-02-10T03:01:21.364Z,940.93
2019-02-10T03:02:21.344Z,940.88
2019-02-10T03:03:21.344Z,940.94
2019-02-10T03:04:21.356Z,940.96
2019-02-10T03:05:21.331Z,940.86
2019-02-10T03:06:21.320Z,940.85
2019-02-10T03:07:21.322Z,940.82
2019-02-10T03:08:21.289Z,940.81
2019-02-10T03:09:21.295Z,940.78
2019-02-10T03:10:21.293Z,940.72
2019-02-10T03:11:21.272Z,940.69
2019-02-10T03:12:21.269Z,940.69
2019-02-10T03:13:21.264Z,940.67
2019-02-10T03:14:21.252Z,940.68
2019-02-10T03:15:21.237Z,940.65
2019-02-10T03:16:21.227Z,940.70
2019-02-10T03:17:21.224Z,940.69
2019-02-10T03:18:21.216Z,940.69
2019-02-10T03:19:21.226Z,940.63
2019-02-10T03:20:21.193Z,940.58
2019-02-10T03:21:21.202Z,940.53
2019-02-10T03:22:21.182Z,940.52
2019-02-10T03:23:21.178Z,940.47
2019-02-10T03:24:21.166Z,940.41
2019-02-10T03:25:21.159Z,940.38
2019-02-10T03:26:21.142Z,940.28
2019-02-10T03:27:21.190Z,940.24
2019-02-10T03:28:21.132Z,940.25
2019-02-10T03:29:21.138Z,940.24
2019-02-10T03:30:21.107Z,940.26
2019-02-10T03:31:21.109Z,940.22
2019-02-10T03:32:21.108Z,940.19
2019-02-10T03:33:21.091Z,940.17
2019-02-10T03:34:21.085Z,940.15
2019-02-10T03:35:21.071Z,940.11
2019-02-10T03:36:21.059Z,940.05
2019-02-10T03:37:26.809Z,940.02
2019-02-10T03:38:21.040Z,939.99
2019-02-10T03:39:21.041Z,940.03
2019-02-10T03:40:21.024Z,940.01
2019-02-10T03:41:21.014Z,939.96
2019-02-10T03:42:21.007Z,939.94
2019-02-10T03:43:21.028Z,939.94
2019-02-10T03:44:20.983Z,939.96
2019-02-10T03:45:20.983Z,939.97
2019-02-10T03:46:20.972Z,939.90
2019-02-10T03:47:22.198Z,939.85
2019-02-10T03:48:20.964Z,939.86
2019-02-10T03:49:20.941Z,939.87
2019-02-10T03:50:20.946Z,939.83
2019-02-10T03:51:20.929Z,939.80
2019-02-10T03:52:20.926Z,939.84
2019-02-10T03:53:20.929Z,939.81
2019-02-10T03:54:20.934Z,939.77
2019-02-10T03:55:20.891Z,939.71
2019-02-10T03:56:20.887Z,939.69
2019-02-10T03:57:20.879Z,939.66
2019-02-10T03:58:20.857Z,939.56
2019-02-10T03:59:20.861Z,939.55
2019-02-10T04:00:20.851Z,939.49
2019-02-10T04:01:20.842Z,939.49
2019-02-10T04:02:20.834Z,939.46
2019-02-10T04:03:20.824Z,939.45
2019-02-10T04:04:20.822Z,939.44
2019-02-10T04:05:20.815Z,939.44
2019-02-10T04:06:20.798Z,939.45
2019-02-10T04:07:20.789Z,939.46
2019-02-10T04:08:20.772Z,939.42
2019-02-10T04:09:20.771Z,939.37
2019-02-10T04:10:20.807Z,939.38
2019-02-10T04:11:20.750Z,939.40
2019-02-10T04:12:20.743Z,939.42
2019-02-10T04:13:20.741Z,939.43
2019-02-10T04:14:20.726Z,939.44
2019-02-10T04:15:20.717Z,939.44
2019-02-10T04:16:20.713Z,939.48
2019-02-10T04:17:20.699Z,939.51
2019-02-10T04:18:20.704Z,939.49
2019-02-10T04:19:20.684Z,939.52
2019-02-10T04:20:20.675Z,939.53
2019-02-10T04:21:20.665Z,939.48
2019-02-10T04:22:20.702Z,939.47
2019-02-10T04:23:20.650Z,939.46
2019-02-10T04:24:20.639Z,939.45
2019-02-10T04:25:20.624Z,939.48
2019-02-10T04:26:20.620Z,939.45
2019-02-10T04:27:20.630Z,939.38
2019-02-10T04:28:20.609Z,939.38
2019-02-10T04:29:20.644Z,939.36
2019-02-10T04:30:20.586Z,939.32
2019-02-10T04:31:20.576Z,939.31
2019-02-10T04:32:20.571Z,939.23
2019-02-10T04:33:20.553Z,939.21
2019-02-10T04:34:20.551Z,939.21
2019-02-10T04:35:20.581Z,939.22
2019-02-10T04:36:20.533Z,939.22
2019-02-10T04:37:20.576Z,939.21
2019-02-10T04:38:20.512Z,939.19
2019-02-10T04:39:20.497Z,939.18
2019-02-10T04:40:20.507Z,939.21
2019-02-10T04:41:20.514Z,939.22
2019-02-10T04:42:20.523Z,939.15
2019-02-10T04:43:20.463Z,939.11
2019-02-10T04:44:20.518Z,939.06
2019-02-10T04:45:20.454Z,939.04
2019-02-10T04:46:20.446Z,939.01
2019-02-10T04:47:20.429Z,938.99
2019-02-10T04:48:20.448Z,938.96
2019-02-10T04:49:20.425Z,938.92
2019-02-10T04:50:20.417Z,938.87
2019-02-10T04:51:20.413Z,938.81
2019-02-10T04:52:20.390Z,938.82
2019-02-10T04:53:20.374Z,938.76
2019-02-10T04:54:20.381Z,938.79
2019-02-10T04:55:20.366Z,938.80
2019-02-10T04:56:20.358Z,938.72
2019-02-10T04:57:20.344Z,938.70
2019-02-10T04:58:20.336Z,938.73
2019-02-10T04:59:20.327Z,938.69
2019-02-10T05:00:20.338Z,938.75
2019-02-10T05:01:20.375Z,938.73
2019-02-10T05:02:20.300Z,938.74
2019-02-10T05:03:20.292Z,938.74
2019-02-10T05:04:20.288Z,938.72
2019-02-10T05:05:20.272Z,938.65
2019-02-10T05:06:20.263Z,938.64
2019-02-10T05:07:20.256Z,938.65
2019-02-10T05:08:20.245Z,938.61
2019-02-10T05:09:20.236Z,938.58
2019-02-10T05:10:21.734Z,938.53
2019-02-10T05:11:20.213Z,938.56
2019-02-10T05:12:20.214Z,938.54
2019-02-10T05:13:20.207Z,938.51
2019-02-10T05:14:20.192Z,938.45
2019-02-10T05:15:20.183Z,938.47
2019-02-10T05:16:20.168Z,938.45
2019-02-10T05:17:20.165Z,938.51
2019-02-10T05:18:20.155Z,938.51
2019-02-10T05:19:20.144Z,938.56
2019-02-10T05:20:20.137Z,938.55
2019-02-10T05:21:20.126Z,938.43
2019-02-10T05:22:20.116Z,938.44
2019-02-10T05:23:20.116Z,938.37
2019-02-10T05:24:20.090Z,938.36
2019-02-10T05:25:20.101Z,938.39
2019-02-10T05:26:20.081Z,938.33
2019-02-10T05:27:20.076Z,938.29
2019-02-10T05:28:20.069Z,938.26
2019-02-10T05:29:20.054Z,938.28
2019-02-10T05:30:20.045Z,938.33
2019-02-10T05:31:20.042Z,938.35
2019-02-10T05:32:20.037Z,938.35
2019-02-10T05:33:20.024Z,938.41
2019-02-10T05:34:20.010Z,938.38
2019-02-10T05:35:20.019Z,938.37
2019-02-10T05:36:19.987Z,938.36
2019-02-10T05:37:19.976Z,938.37
2019-02-10T05:38:20.006Z,938.41
2019-02-10T05:39:19.963Z,938.44
2019-02-10T05:40:19.960Z,938.51
2019-02-10T05:41:19.944Z,938.55
2019-02-10T05:42:19.938Z,938.49
2019-02-10T05:43:19.922Z,938.55
2019-02-10T05:44:19.939Z,938.52
2019-02-10T05:45:19.906Z,938.52
2019-02-10T05:46:19.894Z,938.50
2019-02-10T05:47:19.902Z,938.54
2019-02-10T05:48:19.881Z,938.52
2019-02-10T05:49:19.859Z,938.51
2019-02-10T05:50:19.861Z,938.47
2019-02-10T05:51:22.460Z,938.45
2019-02-10T05:52:19.834Z,938.41
2019-02-10T05:53:19.838Z,938.45
2019-02-10T05:54:19.826Z,938.41
2019-02-10T05:55:19.818Z,938.39
2019-02-10T05:56:19.803Z,938.39
2019-02-10T05:57:19.804Z,938.42
2019-02-10T05:58:19.784Z,938.41
2019-02-10T05:59:19.778Z,938.36
2019-02-10T06:00:19.782Z,938.39
2019-02-10T06:01:19.765Z,938.34
2019-02-10T06:02:19.771Z,938.34
2019-02-10T06:03:19.741Z,938.33
2019-02-10T06:04:19.737Z,938.33
2019-02-10T06:05:19.723Z,938.29
2019-02-10T06:06:19.717Z,938.29
2019-02-10T06:07:19.730Z,938.30
2019-02-10T06:08:19.697Z,938.26
2019-02-10T06:09:19.691Z,938.29
2019-02-10T06:10:19.678Z,938.22
2019-02-10T06:11:19.666Z,938.23
2019-02-10T06:12:19.659Z,938.16
2019-02-10T06:13:19.669Z,938.15
2019-02-10T06:14:19.642Z,938.14
2019-02-10T06:15:19.638Z,938.14
2019-02-10T06:16:19.623Z,938.09
2019-02-10T06:17:19.635Z,938.09
2019-02-10T06:18:19.604Z,938.06
2019-02-10T06:19:19.613Z,938.06
2019-02-10T06:20:19.603Z,938.05
2019-02-10T06:21:19.581Z,938.03
2019-02-10T06:22:19.574Z,938.05
2019-02-10T06:23:19.563Z,938.02
2019-02-10T06:24:19.608Z,937.95
2019-02-10T06:25:19.554Z,937.97
2019-02-10T06:26:19.542Z,937.92
2019-02-10T06:27:19.525Z,937.88
2019-02-10T06:28:19.523Z,937.85
2019-02-10T06:29:19.507Z,937.74
2019-02-10T06:30:19.504Z,937.71
2019-02-10T06:31:19.493Z,937.71
2019-02-10T06:32:19.488Z,937.63
2019-02-10T06:33:19.474Z,937.64
2019-02-10T06:34:19.466Z,937.65
2019-02-10T06:35:19.456Z,937.63
2019-02-10T06:36:19.453Z,937.63
2019-02-10T06:37:19.439Z,937.62
2019-02-10T06:38:22.597Z,937.67
2019-02-10T06:39:19.415Z,937.59
2019-02-10T06:40:19.415Z,937.60
2019-02-10T06:41:21.824Z,937.58
2019-02-10T06:42:19.399Z,937.54
2019-02-10T06:43:19.388Z,937.38
2019-02-10T06:44:19.394Z,937.38
2019-02-10T06:45:19.372Z,937.42
2019-02-10T06:46:19.363Z,937.42
2019-02-10T06:47:19.354Z,937.39
2019-02-10T06:48:19.346Z,937.45
2019-02-10T06:49:19.357Z,937.48
2019-02-10T06:50:19.327Z,937.40
2019-02-10T06:51:19.323Z,937.32
2019-02-10T06:52:19.309Z,937.35
2019-02-10T06:53:19.322Z,937.39
2019-02-10T06:54:19.310Z,937.37
2019-02-10T06:55:19.287Z,937.38
2019-02-10T06:56:19.282Z,937.38
2019-02-10T06:57:19.271Z,937.48
2019-02-10T06:58:19.263Z,937.52
2019-02-10T06:59:19.244Z,937.58
2019-02-10T07:00:19.248Z,937.61
2019-02-10T07:01:19.241Z,937.63
2019-02-10T07:02:19.230Z,937.62
2019-02-10T07:03:19.226Z,937.66
2019-02-10T07:04:19.211Z,937.61
2019-02-10T07:05:19.208Z,937.59
2019-02-10T07:06:19.200Z,937.51
2019-02-10T07:07:19.191Z,937.57
2019-02-10T07:08:19.195Z,937.55
2019-02-10T07:09:19.166Z,937.61
2019-02-10T07:10:19.178Z,937.56
2019-02-10T07:11:19.161Z,937.54
2019-02-10T07:12:19.140Z,937.56
2019-02-10T07:13:19.157Z,937.64
2019-02-10T07:14:19.140Z,937.74
2019-02-10T07:15:19.127Z,937.81
2019-02-10T07:16:19.121Z,937.84
2019-02-10T07:17:19.113Z,937.80
2019-02-10T07:18:19.106Z,937.81
2019-02-10T07:19:19.100Z,937.73
2019-02-10T07:20:19.090Z,937.75
2019-02-10T07:21:19.092Z,937.79
2019-02-10T07:22:19.077Z,937.78
2019-02-10T07:23:19.069Z,937.81
2019-02-10T07:24:19.063Z,937.76
2019-02-10T07:25:19.054Z,937.72
2019-02-10T07:26:19.048Z,937.67
2019-02-10T07:27:19.040Z,937.63
2019-02-10T07:28:19.052Z,937.67
2019-02-10T07:29:19.038Z,937.65
2019-02-10T07:30:19.022Z,937.65
2019-02-10T07:31:19.016Z,937.63
2019-02-10T07:32:19.009Z,937.61
2019-02-10T07:33:19.004Z,937.57
2019-02-10T07:34:19.003Z,937.62
2019-02-10T07:35:19.011Z,937.57
2019-02-10T07:36:18.986Z,937.48
2019-02-10T07:37:18.979Z,937.46
2019-02-10T07:38:18.983Z,937.41
2019-02-10T07:39:19.002Z,937.37
2019-02-10T07:40:18.962Z,937.32
2019-02-10T07:41:18.970Z,937.26
2019-02-10T07:42:18.949Z,937.20
2019-02-10T07:43:18.949Z,937.12
2019-02-10T07:44:18.945Z,937.09
2019-02-10T07:45:18.926Z,937.03
2019-02-10T07:46:18.925Z,937.01
2019-02-10T07:47:18.931Z,937.02
2019-02-10T07:48:18.910Z,937.02
2019-02-10T07:49:18.925Z,936.97
2019-02-10T07:50:18.935Z,936.88
2019-02-10T07:51:18.895Z,936.86
2019-02-10T07:52:18.885Z,936.86
2019-02-10T07:53:18.891Z,936.77
2019-02-10T07:54:18.875Z,936.76
2019-02-10T07:55:18.867Z,936.78
2019-02-10T07:56:18.861Z,936.78
2019-02-10T07:57:18.855Z,936.80
2019-02-10T07:58:18.849Z,936.88
2019-02-10T07:59:18.858Z,936.94
2019-02-10T08:00:18.851Z,937.09
2019-02-10T08:01:18.830Z,937.12
2019-02-10T08:02:18.833Z,937.12
2019-02-10T08:03:18.828Z,937.07
2019-02-10T08:04:18.811Z,936.99
2019-02-10T08:05:18.801Z,936.96
2019-02-10T08:06:18.792Z,936.92
2019-02-10T08:07:18.787Z,936.84
2019-02-10T08:08:18.788Z,936.73
2019-02-10T08:09:18.786Z,936.69
2019-02-10T08:10:18.771Z,936.72
2019-02-10T08:11:18.762Z,936.77
2019-02-10T08:12:18.758Z,936.66
2019-02-10T08:13:18.749Z,936.67
2019-02-10T08:14:18.746Z,936.58
2019-02-10T08:15:18.743Z,936.57
2019-02-10T08:16:18.731Z,936.55
2019-02-10T08:17:18.721Z,936.57
2019-02-10T08:18:18.715Z,936.54
2019-02-10T08:19:18.730Z,936.56
2019-02-10T08:20:18.702Z,936.45
2019-02-10T08:21:18.698Z,936.51
2019-02-10T08:22:19.969Z,936.53
2019-02-10T08:23:18.683Z,936.51
2019-02-10T08:24:20.932Z,936.62
2019-02-10T08:25:18.681Z,936.56
2019-02-10T08:26:18.664Z,936.48
2019-02-10T08:27:18.660Z,936.43
2019-02-10T08:28:18.655Z,936.48
2019-02-10T08:29:18.646Z,936.45
2019-02-10T08:30:18.638Z,936.42
2019-02-10T08:31:18.631Z,936.34
2019-02-10T08:32:18.629Z,936.24
2019-02-10T08:33:18.621Z,936.15
2019-02-10T08:34:18.612Z,936.13
2019-02-10T08:35:18.608Z,936.14
2019-02-10T08:36:18.622Z,936.11
2019-02-10T08:37:18.597Z,936.12
2019-02-10T08:38:18.588Z,936.10
2019-02-10T08:39:18.583Z,936.08
2019-02-10T08:40:18.577Z,936.05
2019-02-10T08:41:18.565Z,936.02
2019-02-10T08:42:18.566Z,936.03
2019-02-10T08:43:18.560Z,935.97
2019-02-10T08:44:18.556Z,935.93
2019-02-10T08:45:18.549Z,935.95
2019-02-10T08:46:18.546Z,935.95
2019-02-10T08:47:18.540Z,935.94
2019-02-10T08:48:18.536Z,935.89
2019-02-10T08:49:18.529Z,935.89
2019-02-10T08:50:18.523Z,935.95
2019-02-10T08:51:18.529Z,935.94
2019-02-10T08:52:18.512Z,935.89
2019-02-10T08:53:18.508Z,935.79
2019-02-10T08:54:18.536Z,935.69
2019-02-10T08:55:18.496Z,935.73
2019-02-10T08:56:18.490Z,935.67
2019-02-10T08:57:18.490Z,935.68
2019-02-10T08:58:18.482Z,935.62
2019-02-10T08:59:18.479Z,935.64
2019-02-10T09:00:18.483Z,935.62
2019-02-10T09:01:18.469Z,935.69
2019-02-10T09:02:18.454Z,935.74
2019-02-10T09:03:19.820Z,935.77
2019-02-10T09:04:18.452Z,935.71
2019-02-10T09:05:18.464Z,935.68
2019-02-10T09:06:18.446Z,935.71
2019-02-10T09:07:18.438Z,935.75
2019-02-10T09:08:18.435Z,935.77
2019-02-10T09:09:18.456Z,935.66
2019-02-10T09:10:18.421Z,935.56
2019-02-10T09:11:18.421Z,935.63
2019-02-10T09:12:18.426Z,935.61
2019-02-10T09:13:18.431Z,935.61
2019-02-10T09:14:20.713Z,935.69
2019-02-10T09:15:20.648Z,935.69
2019-02-10T09:16:18.406Z,935.64
2019-02-10T09:17:18.386Z,935.55
2019-02-10T09:18:18.391Z,935.52
2019-02-10T09:19:18.383Z,935.60
2019-02-10T09:20:18.397Z,935.62
2019-02-10T09:21:18.382Z,935.52
2019-02-10T09:22:18.376Z,935.48
2019-02-10T09:23:18.375Z,935.37
2019-02-10T09:24:18.378Z,935.30
2019-02-10T09:25:18.370Z,935.30
2019-02-10T09:26:18.364Z,935.30
2019-02-10T09:27:18.361Z,935.28
2019-02-10T09:28:18.362Z,935.27
2019-02-10T09:29:18.349Z,935.29
2019-02-10T09:30:18.347Z,935.32
2019-02-10T09:31:18.361Z,935.23
2019-02-10T09:32:18.327Z,935.07
2019-02-10T09:33:18.338Z,935.04
2019-02-10T09:34:18.332Z,935.17
2019-02-10T09:35:18.326Z,935.15
2019-02-10T09:36:18.326Z,935.20
2019-02-10T09:37:18.349Z,935.22
2019-02-10T09:38:18.320Z,935.23
2019-02-10T09:39:18.312Z,935.21
2019-02-10T09:40:18.314Z,935.19
2019-02-10T09:41:18.321Z,935.09
2019-02-10T09:42:18.307Z,935.17
2019-02-10T09:43:18.329Z,935.13
2019-02-10T09:44:18.302Z,935.17
2019-02-10T09:45:18.297Z,935.10
2019-02-10T09:46:18.295Z,935.03
2019-02-10T09:47:18.290Z,935.05
2019-02-10T09:48:18.295Z,935.14
2019-02-10T09:49:18.327Z,935.20
2019-02-10T09:50:18.286Z,935.15
2019-02-10T09:51:18.286Z,935.17
2019-02-10T09:52:18.281Z,935.16
2019-02-10T09:53:18.280Z,935.12
2019-02-10T09:54:18.302Z,935.11
2019-02-10T09:55:18.305Z,935.09
2019-02-10T09:56:18.277Z,934.99
2019-02-10T09:57:18.275Z,934.99
2019-02-10T09:58:18.292Z,934.95
2019-02-10T09:59:18.272Z,934.98
2019-02-10T10:00:18.271Z,934.93
2019-02-10T10:01:18.266Z,934.93
2019-02-10T10:02:18.268Z,934.84
2019-02-10T10:03:18.281Z,934.77
2019-02-10T10:04:18.265Z,934.75
2019-02-10T10:05:18.321Z,934.83
2019-02-10T10:06:20.507Z,934.81
2019-02-10T10:07:18.275Z,934.64
2019-02-10T10:08:18.260Z,934.62
2019-02-10T10:09:19.683Z,934.55
2019-02-10T10:10:18.264Z,934.70
2019-02-10T10:11:18.264Z,934.77
2019-02-10T10:12:18.265Z,934.69
2019-02-10T10:13:18.258Z,934.72
2019-02-10T10:14:19.738Z,934.76
2019-02-10T10:15:18.258Z,934.79
2019-02-10T10:16:18.268Z,934.71
2019-02-10T10:17:18.258Z,934.67
2019-02-10T10:18:18.278Z,934.65
2019-02-10T10:19:18.264Z,934.62
2019-02-10T10:20:18.262Z,934.54
2019-02-10T10:21:18.289Z,934.61
2019-02-10T10:22:18.300Z,934.60
2019-02-10T10:23:18.276Z,934.56
2019-02-10T10:24:18.265Z,934.53
2019-02-10T10:25:18.259Z,934.68
2019-02-10T10:26:18.279Z,934.68
2019-02-10T10:27:18.246Z,934.65
2019-02-10T10:28:18.268Z,934.63
2019-02-10T10:29:18.255Z,934.68
2019-02-10T10:30:18.257Z,934.72
2019-02-10T10:31:18.251Z,934.65
2019-02-10T10:32:18.267Z,934.54
2019-02-10T10:33:18.256Z,934.53
2019-02-10T10:34:18.250Z,934.48
2019-02-10T10:35:18.256Z,934.45
2019-02-10T10:36:18.257Z,934.46
2019-02-10T10:37:18.259Z,934.40
2019-02-10T10:38:18.259Z,934.42
2019-02-10T10:39:18.303Z,934.36
2019-02-10T10:40:18.276Z,934.34
2019-02-10T10:41:18.260Z,934.28
2019-02-10T10:42:18.323Z,934.26
2019-02-10T10:43:18.265Z,934.24
2019-02-10T10:44:18.267Z,934.21
2019-02-10T10:45:18.270Z,934.16
2019-02-10T10:46:18.270Z,934.12
2019-02-10T10:47:18.296Z,934.03
2019-02-10T10:48:18.271Z,934.08
2019-02-10T10:49:18.274Z,934.06
2019-02-10T10:50:18.275Z,934.01
2019-02-10T10:51:18.277Z,933.97
2019-02-10T10:52:18.265Z,933.95
2019-02-10T10:53:18.275Z,933.94
2019-02-10T10:54:18.276Z,933.97
2019-02-10T10:55:18.272Z,933.94
2019-02-10T10:56:18.977Z,933.94
2019-02-10T10:57:18.276Z,933.94
2019-02-10T10:58:18.270Z,933.86
2019-02-10T10:59:18.269Z,933.80
2019-02-10T11:00:18.259Z,933.81
2019-02-10T11:01:25.138Z,933.79
2019-02-10T11:02:18.280Z,933.72
2019-02-10T11:03:18.264Z,933.70
2019-02-10T11:04:18.262Z,933.75
2019-02-10T11:05:18.260Z,933.72
2019-02-10T11:06:18.258Z,933.68
2019-02-10T11:07:18.253Z,933.63
2019-02-10T11:08:18.251Z,933.62
2019-02-10T11:09:18.248Z,933.56
2019-02-10T11:10:18.239Z,933.51
2019-02-10T11:11:18.244Z,933.56
2019-02-10T11:12:18.244Z,933.49
2019-02-10T11:13:18.239Z,933.42
2019-02-10T11:14:18.237Z,933.43
2019-02-10T11:15:18.236Z,933.42
2019-02-10T11:16:18.232Z,933.32
2019-02-10T11:17:18.265Z,933.31
2019-02-10T11:18:18.244Z,933.28
2019-02-10T11:19:18.228Z,933.39
2019-02-10T11:20:18.213Z,933.36
2019-02-10T11:21:18.215Z,933.31
2019-02-10T11:22:18.221Z,933.14
2019-02-10T11:23:18.209Z,933.18
2019-02-10T11:24:18.214Z,933.11
2019-02-10T11:25:18.210Z,933.08
2019-02-10T11:26:18.209Z,932.99
2019-02-10T11:27:18.201Z,932.82
2019-02-10T11:28:18.241Z,932.82
2019-02-10T11:29:18.194Z,932.79
2019-02-10T11:30:18.191Z,932.68
2019-02-10T11:31:18.179Z,932.61
2019-02-10T11:32:18.211Z,932.52
2019-02-10T11:33:18.191Z,932.44
2019-02-10T11:34:18.182Z,932.48
2019-02-10T11:35:18.178Z,932.52
2019-02-10T11:36:18.192Z,932.52
2019-02-10T11:37:18.176Z,932.45
2019-02-10T11:38:18.173Z,932.37
2019-02-10T11:39:18.176Z,932.24
2019-02-10T11:40:18.190Z,932.21
2019-02-10T11:41:18.194Z,932.25
2019-02-10T11:42:18.170Z,932.21
2019-02-10T11:43:18.167Z,932.28
2019-02-10T11:44:18.162Z,932.38
2019-02-10T11:45:18.173Z,932.33
2019-02-10T11:46:18.172Z,932.30
2019-02-10T11:47:18.173Z,932.28
2019-02-10T11:48:18.163Z,932.31
2019-02-10T11:49:18.171Z,932.24
2019-02-10T11:50:18.173Z,932.23
2019-02-10T11:51:18.912Z,932.25
2019-02-10T11:52:18.179Z,932.29
2019-02-10T11:53:18.180Z,932.23
2019-02-10T11:54:18.177Z,932.21
2019-02-10T11:55:18.172Z,932.07
2019-02-10T11:56:18.167Z,932.03
2019-02-10T11:57:18.181Z,932.11
2019-02-10T11:58:18.170Z,932.20
2019-02-10T11:59:18.182Z,932.10
2019-02-10T12:00:18.208Z,932.00
2019-02-10T12:01:18.175Z,931.89
2019-02-10T12:02:18.180Z,931.91
2019-02-10T12:03:18.182Z,931.95
2019-02-10T12:04:18.183Z,931.98
2019-02-10T12:05:18.185Z,931.95
2019-02-10T12:06:18.200Z,931.86
2019-02-10T12:07:18.216Z,931.82
2019-02-10T12:08:18.184Z,931.76
2019-02-10T12:09:18.186Z,931.68
2019-02-10T12:10:18.186Z,931.75
2019-02-10T12:11:18.185Z,931.88
2019-02-10T12:12:18.184Z,931.79
2019-02-10T12:13:18.186Z,931.73
2019-02-10T12:14:18.180Z,931.62
2019-02-10T12:15:18.197Z,931.58
2019-02-10T12:16:18.333Z,931.57
2019-02-10T12:17:18.187Z,931.54
2019-02-10T12:18:18.179Z,931.48
2019-02-10T12:19:18.191Z,931.50
2019-02-10T12:20:18.183Z,931.53
2019-02-10T12:21:18.182Z,931.58
2019-02-10T12:22:18.186Z,931.44
2019-02-10T12:23:18.180Z,931.37
2019-02-10T12:24:18.180Z,931.25
2019-02-10T12:25:18.178Z,931.21
2019-02-10T12:26:18.177Z,931.19
2019-02-10T12:27:18.175Z,931.19
2019-02-10T12:28:18.210Z,931.25